sensor_id;sensor_type;location;lat;lon;timestamp;pressure;altitude;pressure_sealevel;temperature;humidity
73645;BME280;61940;42.136;24.534;2022-08-02T00:01:05;99168.42;;;26.38;36.99
73645;BME280;61940;42.136;24.534;2022-08-02T00:03:32;99163.05;;;26.27;37.19
73645;BME280;61940;42.136;24.534;2022-08-02T00:05:58;99165.86;;;26.28;37.14
73645;BME280;61940;42.136;24.534;2022-08-02T00:08:24;99169.03;;;26.32;37.09
73645;BME280;61940;42.136;24.534;2022-08-02T00:10:50;99174.46;;;26.35;36.99
73645;BME280;61940;42.136;24.534;2022-08-02T00:13:16;99177.03;;;26.39;36.98
73645;BME280;61940;42.136;24.534;2022-08-02T00:15:43;99175.84;;;26.42;36.84
73645;BME280;61940;42.136;24.534;2022-08-02T00:18:09;99170.41;;;26.39;37.02
73645;BME280;61940;42.136;24.534;2022-08-02T00:20:35;99167.23;;;26.34;37.09
73645;BME280;61940;42.136;24.534;2022-08-02T00:23:01;99167.64;;;26.34;37.17
73645;BME280;61940;42.136;24.534;2022-08-02T00:25:27;99170.84;;;26.32;37.25
73645;BME280;61940;42.136;24.534;2022-08-02T00:27:53;99170.22;;;26.36;37.12
73645;BME280;61940;42.136;24.534;2022-08-02T00:30:20;99176.25;;;26.39;36.97
73645;BME280;61940;42.136;24.534;2022-08-02T00:32:46;99171.82;;;26.41;36.83
73645;BME280;61940;42.136;24.534;2022-08-02T00:35:12;99170.80;;;26.45;36.73
73645;BME280;61940;42.136;24.534;2022-08-02T00:37:39;99163.39;;;26.41;36.59
73645;BME280;61940;42.136;24.534;2022-08-02T00:40:05;99165.59;;;26.40;36.53
73645;BME280;61940;42.136;24.534;2022-08-02T00:42:31;99165.47;;;26.25;36.78
73645;BME280;61940;42.136;24.534;2022-08-02T00:44:58;99168.67;;;26.23;36.81
73645;BME280;61940;42.136;24.534;2022-08-02T00:47:24;99161.88;;;26.17;36.92
73645;BME280;61940;42.136;24.534;2022-08-02T00:49:50;99166.67;;;26.13;37.06
73645;BME280;61940;42.136;24.534;2022-08-02T00:52:17;99165.29;;;26.17;36.98
73645;BME280;61940;42.136;24.534;2022-08-02T00:54:43;99157.86;;;26.15;36.98
73645;BME280;61940;42.136;24.534;2022-08-02T00:57:09;99161.68;;;26.11;37.11
73645;BME280;61940;42.136;24.534;2022-08-02T00:59:36;99156.27;;;26.17;36.97
73645;BME280;61940;42.136;24.534;2022-08-02T01:02:02;99158.27;;;26.17;37.01
73645;BME280;61940;42.136;24.534;2022-08-02T01:04:28;99156.28;;;26.03;37.26
73645;BME280;61940;42.136;24.534;2022-08-02T01:06:54;99147.68;;;26.02;37.19
73645;BME280;61940;42.136;24.534;2022-08-02T01:09:20;99157.87;;;26.06;37.12
73645;BME280;61940;42.136;24.534;2022-08-02T01:11:47;99153.86;;;26.07;37.09
73645;BME280;61940;42.136;24.534;2022-08-02T01:14:13;99150.45;;;26.07;37.08
73645;BME280;61940;42.136;24.534;2022-08-02T01:16:43;99154.47;;;26.08;37.06
73645;BME280;61940;42.136;24.534;2022-08-02T01:19:23;99149.86;;;26.08;37.09
73645;BME280;61940;42.136;24.534;2022-08-02T01:22:22;99154.23;;;26.12;37.12
73645;BME280;61940;42.136;24.534;2022-08-02T01:24:41;99152.23;;;26.13;37.06
73645;BME280;61940;42.136;24.534;2022-08-02T01:27:14;99152.65;;;26.09;37.15
73645;BME280;61940;42.136;24.534;2022-08-02T01:29:38;99152.06;;;26.06;37.32
73645;BME280;61940;42.136;24.534;2022-08-02T01:32:11;99150.27;;;25.99;37.54
73645;BME280;61940;42.136;24.534;2022-08-02T01:34:40;99154.92;;;25.91;37.77
73645;BME280;61940;42.136;24.534;2022-08-02T01:37:06;99158.12;;;25.89;37.79
73645;BME280;61940;42.136;24.534;2022-08-02T01:39:32;99166.77;;;25.79;38.12
73645;BME280;61940;42.136;24.534;2022-08-02T01:41:58;99157.14;;;25.79;38.00
73645;BME280;61940;42.136;24.534;2022-08-02T01:44:24;99154.75;;;25.81;37.97
73645;BME280;61940;42.136;24.534;2022-08-02T01:46:50;99150.73;;;25.80;37.99
73645;BME280;61940;42.136;24.534;2022-08-02T01:49:17;99143.34;;;25.78;38.07
73645;BME280;61940;42.136;24.534;2022-08-02T01:51:42;99145.73;;;25.76;38.04
73645;BME280;61940;42.136;24.534;2022-08-02T01:54:15;99139.72;;;25.72;38.26
73645;BME280;61940;42.136;24.534;2022-08-02T01:56:41;99141.92;;;25.73;38.11
73645;BME280;61940;42.136;24.534;2022-08-02T01:59:07;99140.95;;;25.71;38.16
73645;BME280;61940;42.136;24.534;2022-08-02T02:01:33;99148.36;;;25.71;38.15
73645;BME280;61940;42.136;24.534;2022-08-02T02:03:59;99137.32;;;25.78;38.01
73645;BME280;61940;42.136;24.534;2022-08-02T02:06:25;99137.13;;;25.75;38.02
73645;BME280;61940;42.136;24.534;2022-08-02T02:08:52;99137.91;;;25.75;37.89
73645;BME280;61940;42.136;24.534;2022-08-02T02:11:18;99138.73;;;25.71;37.91
73645;BME280;61940;42.136;24.534;2022-08-02T02:13:44;99144.73;;;25.69;37.89
73645;BME280;61940;42.136;24.534;2022-08-02T02:16:10;99133.31;;;25.73;37.81
73645;BME280;61940;42.136;24.534;2022-08-02T02:18:38;99135.31;;;25.73;37.76
73645;BME280;61940;42.136;24.534;2022-08-02T02:21:03;99134.53;;;25.71;37.70
73645;BME280;61940;42.136;24.534;2022-08-02T02:23:29;99130.94;;;25.68;37.62
73645;BME280;61940;42.136;24.534;2022-08-02T02:25:55;99128.75;;;25.50;37.75
73645;BME280;61940;42.136;24.534;2022-08-02T02:28:24;99135.13;;;25.45;37.79
73645;BME280;61940;42.136;24.534;2022-08-02T02:30:49;99131.55;;;25.48;37.75
73645;BME280;61940;42.136;24.534;2022-08-02T02:33:16;99132.55;;;25.50;37.63
73645;BME280;61940;42.136;24.534;2022-08-02T02:35:42;99130.13;;;25.36;37.83
73645;BME280;61940;42.136;24.534;2022-08-02T02:38:10;99124.33;;;25.23;38.04
73645;BME280;61940;42.136;24.534;2022-08-02T02:40:34;99132.14;;;25.05;38.35
73645;BME280;61940;42.136;24.534;2022-08-02T02:43:01;99131.73;;;25.09;38.23
73645;BME280;61940;42.136;24.534;2022-08-02T02:45:27;99128.95;;;24.98;38.30
73645;BME280;61940;42.136;24.534;2022-08-02T02:47:53;99130.95;;;24.98;38.25
73645;BME280;61940;42.136;24.534;2022-08-02T02:50:19;99127.75;;;24.94;38.26
73645;BME280;61940;42.136;24.534;2022-08-02T02:52:45;99130.14;;;24.87;38.46
73645;BME280;61940;42.136;24.534;2022-08-02T02:55:12;99126.93;;;24.86;38.41
73645;BME280;61940;42.136;24.534;2022-08-02T02:57:38;99131.30;;;24.80;38.48
73645;BME280;61940;42.136;24.534;2022-08-02T03:00:05;99130.34;;;24.88;38.29
73645;BME280;61940;42.136;24.534;2022-08-02T03:02:31;99127.16;;;24.98;37.93
73645;BME280;61940;42.136;24.534;2022-08-02T03:04:57;99129.34;;;25.00;37.80
73645;BME280;61940;42.136;24.534;2022-08-02T03:07:23;99134.74;;;24.99;37.81
73645;BME280;61940;42.136;24.534;2022-08-02T03:09:49;99135.76;;;25.01;37.70
73645;BME280;61940;42.136;24.534;2022-08-02T03:12:15;99139.95;;;25.02;37.69
73645;BME280;61940;42.136;24.534;2022-08-02T03:14:42;99140.16;;;24.96;37.88
73645;BME280;61940;42.136;24.534;2022-08-02T03:17:08;99141.36;;;24.97;37.95
73645;BME280;61940;42.136;24.534;2022-08-02T03:19:34;99145.77;;;25.00;37.91
73645;BME280;61940;42.136;24.534;2022-08-02T03:22:00;99144.38;;;25.02;37.85
73645;BME280;61940;42.136;24.534;2022-08-02T03:24:26;99150.77;;;25.02;38.01
73645;BME280;61940;42.136;24.534;2022-08-02T03:26:53;99150.36;;;24.93;38.25
73645;BME280;61940;42.136;24.534;2022-08-02T03:29:19;99146.75;;;24.93;38.18
73645;BME280;61940;42.136;24.534;2022-08-02T03:31:45;99156.17;;;24.91;38.32
73645;BME280;61940;42.136;24.534;2022-08-02T03:34:11;99150.13;;;24.78;38.63
73645;BME280;61940;42.136;24.534;2022-08-02T03:36:37;99151.50;;;24.76;38.78
73645;BME280;61940;42.136;24.534;2022-08-02T03:39:04;99153.19;;;25.07;38.04
73645;BME280;61940;42.136;24.534;2022-08-02T03:41:30;99154.37;;;25.47;37.31
73645;BME280;61940;42.136;24.534;2022-08-02T03:43:56;99158.75;;;25.89;36.43
73645;BME280;61940;42.136;24.534;2022-08-02T03:46:23;99157.30;;;26.04;36.18
73645;BME280;61940;42.136;24.534;2022-08-02T03:48:50;99151.12;;;25.87;36.38
73645;BME280;61940;42.136;24.534;2022-08-02T03:51:16;99173.53;;;26.03;36.23
73645;BME280;61940;42.136;24.534;2022-08-02T03:53:42;99171.62;;;26.40;35.50
73645;BME280;61940;42.136;24.534;2022-08-02T03:56:08;99172.42;;;26.77;34.80
73645;BME280;61940;42.136;24.534;2022-08-02T03:58:34;99178.93;;;27.25;33.95
73645;BME280;61940;42.136;24.534;2022-08-02T04:01:01;99180.66;;;27.82;32.97
73645;BME280;61940;42.136;24.534;2022-08-02T04:03:27;99187.72;;;28.37;32.25
73645;BME280;61940;42.136;24.534;2022-08-02T04:05:54;99181.82;;;28.58;32.12
73645;BME280;61940;42.136;24.534;2022-08-02T04:08:20;99176.59;;;29.13;30.96
73645;BME280;61940;42.136;24.534;2022-08-02T04:10:47;99180.19;;;29.54;30.51
73645;BME280;61940;42.136;24.534;2022-08-02T04:13:19;99177.70;;;29.79;30.31
73645;BME280;61940;42.136;24.534;2022-08-02T04:15:45;99178.34;;;30.12;29.69
73645;BME280;61940;42.136;24.534;2022-08-02T04:18:11;99174.81;;;30.16;29.57
73645;BME280;61940;42.136;24.534;2022-08-02T04:20:37;99175.27;;;30.34;29.39
73645;BME280;61940;42.136;24.534;2022-08-02T04:23:04;99175.11;;;30.71;29.00
73645;BME280;61940;42.136;24.534;2022-08-02T04:25:30;99182.09;;;30.47;29.26
73645;BME280;61940;42.136;24.534;2022-08-02T04:27:56;99183.07;;;30.94;28.62
73645;BME280;61940;42.136;24.534;2022-08-02T04:30:22;99178.94;;;31.24;28.27
73645;BME280;61940;42.136;24.534;2022-08-02T04:32:49;99175.56;;;31.29;28.21
73645;BME280;61940;42.136;24.534;2022-08-02T04:35:15;99178.59;;;31.38;28.03
73645;BME280;61940;42.136;24.534;2022-08-02T04:37:41;99181.14;;;31.59;27.66
73645;BME280;61940;42.136;24.534;2022-08-02T04:40:08;99183.42;;;31.72;27.58
73645;BME280;61940;42.136;24.534;2022-08-02T04:42:36;99190.01;;;31.59;27.56
73645;BME280;61940;42.136;24.534;2022-08-02T04:45:03;99186.37;;;31.97;27.08
73645;BME280;61940;42.136;24.534;2022-08-02T04:47:29;99181.25;;;32.08;27.08
73645;BME280;61940;42.136;24.534;2022-08-02T04:49:55;99186.08;;;32.16;26.85
73645;BME280;61940;42.136;24.534;2022-08-02T04:52:24;99178.87;;;32.42;26.42
73645;BME280;61940;42.136;24.534;2022-08-02T04:54:50;99185.38;;;32.06;26.72
73645;BME280;61940;42.136;24.534;2022-08-02T04:57:16;99184.92;;;31.99;26.78
73645;BME280;61940;42.136;24.534;2022-08-02T04:59:48;99187.22;;;32.12;26.68
73645;BME280;61940;42.136;24.534;2022-08-02T05:02:14;99185.70;;;32.36;26.35
73645;BME280;61940;42.136;24.534;2022-08-02T05:04:40;99191.98;;;31.77;27.00
73645;BME280;61940;42.136;24.534;2022-08-02T05:07:07;99190.63;;;31.67;27.41
73645;BME280;61940;42.136;24.534;2022-08-02T05:09:33;99183.48;;;31.54;27.64
73645;BME280;61940;42.136;24.534;2022-08-02T05:11:59;99183.97;;;31.51;27.64
73645;BME280;61940;42.136;24.534;2022-08-02T05:14:25;99191.80;;;31.92;27.07
73645;BME280;61940;42.136;24.534;2022-08-02T05:16:51;99192.28;;;32.62;26.17
73645;BME280;61940;42.136;24.534;2022-08-02T05:19:18;99188.02;;;32.96;25.56
73645;BME280;61940;42.136;24.534;2022-08-02T05:21:44;99196.02;;;33.37;24.96
73645;BME280;61940;42.136;24.534;2022-08-02T05:24:10;99190.20;;;33.72;24.47
73645;BME280;61940;42.136;24.534;2022-08-02T05:26:36;99189.06;;;34.04;24.03
73645;BME280;61940;42.136;24.534;2022-08-02T05:29:03;99190.88;;;34.27;23.59
73645;BME280;61940;42.136;24.534;2022-08-02T05:31:29;99190.05;;;34.55;22.96
73645;BME280;61940;42.136;24.534;2022-08-02T05:33:55;99189.61;;;34.50;22.95
73645;BME280;61940;42.136;24.534;2022-08-02T05:36:21;99193.30;;;33.82;23.51
73645;BME280;61940;42.136;24.534;2022-08-02T05:38:47;99198.19;;;32.74;24.84
73645;BME280;61940;42.136;24.534;2022-08-02T05:41:13;99198.23;;;31.37;26.73
73645;BME280;61940;42.136;24.534;2022-08-02T05:43:40;99205.43;;;30.60;26.86
73645;BME280;61940;42.136;24.534;2022-08-02T05:46:06;99200.42;;;29.86;28.69
73645;BME280;61940;42.136;24.534;2022-08-02T05:48:32;99203.70;;;29.21;29.70
73645;BME280;61940;42.136;24.534;2022-08-02T05:51:02;99204.28;;;28.82;30.39
73645;BME280;61940;42.136;24.534;2022-08-02T05:53:34;99204.70;;;28.31;31.20
73645;BME280;61940;42.136;24.534;2022-08-02T05:55:56;99212.82;;;28.07;31.74
73645;BME280;61940;42.136;24.534;2022-08-02T05:58:25;99212.76;;;27.70;32.13
73645;BME280;61940;42.136;24.534;2022-08-02T06:00:50;99213.70;;;27.53;32.15
73645;BME280;61940;42.136;24.534;2022-08-02T06:03:20;99211.91;;;28.16;31.44
73645;BME280;61940;42.136;24.534;2022-08-02T06:05:48;99206.66;;;29.87;28.32
73645;BME280;61940;42.136;24.534;2022-08-02T06:08:11;99206.58;;;31.27;26.19
73645;BME280;61940;42.136;24.534;2022-08-02T06:10:37;99219.50;;;32.23;24.72
73645;BME280;61940;42.136;24.534;2022-08-02T06:13:06;99215.80;;;33.28;23.71
73645;BME280;61940;42.136;24.534;2022-08-02T06:15:32;99208.14;;;33.81;22.90
73645;BME280;61940;42.136;24.534;2022-08-02T06:17:58;99212.98;;;34.62;22.07
73645;BME280;61940;42.136;24.534;2022-08-02T06:20:24;99218.81;;;35.11;21.48
73645;BME280;61940;42.136;24.534;2022-08-02T06:22:50;99223.66;;;35.37;20.86
73645;BME280;61940;42.136;24.534;2022-08-02T06:25:17;99221.83;;;35.81;20.43
73645;BME280;61940;42.136;24.534;2022-08-02T06:27:43;99218.16;;;35.67;20.42
73645;BME280;61940;42.136;24.534;2022-08-02T06:30:09;99216.84;;;35.83;20.39
73645;BME280;61940;42.136;24.534;2022-08-02T06:32:35;99218.32;;;36.20;19.94
73645;BME280;61940;42.136;24.534;2022-08-02T06:35:02;99217.69;;;36.52;19.57
73645;BME280;61940;42.136;24.534;2022-08-02T06:37:35;99218.95;;;36.60;19.46
73645;BME280;61940;42.136;24.534;2022-08-02T06:40:01;99218.31;;;36.52;19.37
73645;BME280;61940;42.136;24.534;2022-08-02T06:42:25;99214.45;;;36.43;19.70
73645;BME280;61940;42.136;24.534;2022-08-02T06:44:50;99216.20;;;36.58;19.54
73645;BME280;61940;42.136;24.534;2022-08-02T06:47:16;99225.23;;;36.39;19.62
73645;BME280;61940;42.136;24.534;2022-08-02T06:49:43;99219.11;;;36.07;19.64
73645;BME280;61940;42.136;24.534;2022-08-02T06:52:09;99219.53;;;35.87;20.16
73645;BME280;61940;42.136;24.534;2022-08-02T06:54:36;99220.95;;;36.57;19.53
73645;BME280;61940;42.136;24.534;2022-08-02T06:57:02;99220.16;;;37.05;18.92
73645;BME280;61940;42.136;24.534;2022-08-02T06:59:28;99217.41;;;37.03;19.20
73645;BME280;61940;42.136;24.534;2022-08-02T07:01:55;99208.41;;;36.94;19.09
73645;BME280;61940;42.136;24.534;2022-08-02T07:04:22;99209.11;;;36.70;19.27
73645;BME280;61940;42.136;24.534;2022-08-02T07:06:48;99203.83;;;36.66;19.42
73645;BME280;61940;42.136;24.534;2022-08-02T07:09:14;99207.53;;;36.51;19.77
73645;BME280;61940;42.136;24.534;2022-08-02T07:11:40;99202.80;;;36.39;19.88
73645;BME280;61940;42.136;24.534;2022-08-02T07:14:06;99203.73;;;36.72;19.45
73645;BME280;61940;42.136;24.534;2022-08-02T07:16:32;99209.67;;;36.72;19.21
73645;BME280;61940;42.136;24.534;2022-08-02T07:18:59;99199.23;;;36.59;19.55
73645;BME280;61940;42.136;24.534;2022-08-02T07:21:25;99198.98;;;36.24;19.72
73645;BME280;61940;42.136;24.534;2022-08-02T07:23:51;99211.11;;;36.44;19.69
73645;BME280;61940;42.136;24.534;2022-08-02T07:26:17;99209.13;;;36.48;19.66
73645;BME280;61940;42.136;24.534;2022-08-02T07:28:44;99202.50;;;36.81;19.48
73645;BME280;61940;42.136;24.534;2022-08-02T07:31:10;99203.83;;;37.22;19.00
73645;BME280;61940;42.136;24.534;2022-08-02T07:33:36;99201.78;;;37.55;18.86
73645;BME280;61940;42.136;24.534;2022-08-02T07:36:02;99197.77;;;37.29;18.81
73645;BME280;61940;42.136;24.534;2022-08-02T07:38:29;99192.80;;;37.01;19.02
73645;BME280;61940;42.136;24.534;2022-08-02T07:40:55;99195.73;;;36.90;19.25
73645;BME280;61940;42.136;24.534;2022-08-02T07:43:21;99196.39;;;37.15;18.95
73645;BME280;61940;42.136;24.534;2022-08-02T07:45:47;99197.30;;;37.70;18.58
73645;BME280;61940;42.136;24.534;2022-08-02T07:48:13;99198.84;;;37.36;18.72
73645;BME280;61940;42.136;24.534;2022-08-02T07:50:40;99198.03;;;37.80;18.60
73645;BME280;61940;42.136;24.534;2022-08-02T07:53:06;99198.31;;;38.03;18.21
73645;BME280;61940;42.136;24.534;2022-08-02T07:55:32;99202.72;;;38.40;17.69
73645;BME280;61940;42.136;24.534;2022-08-02T07:57:58;99199.17;;;39.10;17.16
73645;BME280;61940;42.136;24.534;2022-08-02T08:00:24;99196.45;;;39.86;16.48
73645;BME280;61940;42.136;24.534;2022-08-02T08:02:51;99197.55;;;40.01;16.12
73645;BME280;61940;42.136;24.534;2022-08-02T08:05:17;99191.03;;;39.28;16.99
73645;BME280;61940;42.136;24.534;2022-08-02T08:07:43;99194.89;;;39.25;17.03
73645;BME280;61940;42.136;24.534;2022-08-02T08:10:09;99201.15;;;38.68;17.10
73645;BME280;61940;42.136;24.534;2022-08-02T08:12:35;99200.33;;;39.58;16.66
73645;BME280;61940;42.136;24.534;2022-08-02T08:15:02;99205.58;;;39.97;16.07
73645;BME280;61940;42.136;24.534;2022-08-02T08:17:28;99201.55;;;40.06;15.89
73645;BME280;61940;42.136;24.534;2022-08-02T08:19:54;99199.66;;;40.34;15.46
73645;BME280;61940;42.136;24.534;2022-08-02T08:22:20;99203.13;;;41.49;14.99
73645;BME280;61940;42.136;24.534;2022-08-02T08:24:46;99198.50;;;41.84;14.75
73645;BME280;61940;42.136;24.534;2022-08-02T08:27:13;99200.12;;;41.72;14.54
73645;BME280;61940;42.136;24.534;2022-08-02T08:29:40;99200.02;;;41.53;14.81
73645;BME280;61940;42.136;24.534;2022-08-02T08:32:05;99197.09;;;41.00;15.24
73645;BME280;61940;42.136;24.534;2022-08-02T08:34:32;99202.18;;;40.98;15.42
73645;BME280;61940;42.136;24.534;2022-08-02T08:36:58;99191.20;;;40.73;15.15
73645;BME280;61940;42.136;24.534;2022-08-02T08:39:24;99199.39;;;40.22;15.54
73645;BME280;61940;42.136;24.534;2022-08-02T08:41:50;99201.96;;;38.98;16.49
73645;BME280;61940;42.136;24.534;2022-08-02T08:44:16;99197.78;;;39.03;16.96
73645;BME280;61940;42.136;24.534;2022-08-02T08:46:43;99198.94;;;38.55;17.21
73645;BME280;61940;42.136;24.534;2022-08-02T08:49:11;99196.42;;;39.16;16.75
73645;BME280;61940;42.136;24.534;2022-08-02T08:51:36;99196.25;;;40.20;16.12
73645;BME280;61940;42.136;24.534;2022-08-02T08:54:02;99188.23;;;40.59;15.43
73645;BME280;61940;42.136;24.534;2022-08-02T08:56:29;99194.48;;;40.38;15.72
73645;BME280;61940;42.136;24.534;2022-08-02T08:58:54;99189.09;;;40.84;15.71
73645;BME280;61940;42.136;24.534;2022-08-02T09:01:20;99190.87;;;41.04;15.09
73645;BME280;61940;42.136;24.534;2022-08-02T09:03:47;99186.37;;;40.85;15.28
73645;BME280;61940;42.136;24.534;2022-08-02T09:06:13;99185.99;;;40.87;15.42
73645;BME280;61940;42.136;24.534;2022-08-02T09:08:39;99178.37;;;40.66;15.49
73645;BME280;61940;42.136;24.534;2022-08-02T09:11:12;99179.79;;;40.79;15.53
73645;BME280;61940;42.136;24.534;2022-08-02T09:13:38;99176.13;;;40.40;15.97
73645;BME280;61940;42.136;24.534;2022-08-02T09:16:04;99172.95;;;40.38;16.17
73645;BME280;61940;42.136;24.534;2022-08-02T09:18:32;99175.56;;;41.19;15.71
73645;BME280;61940;42.136;24.534;2022-08-02T09:20:58;99177.00;;;41.19;15.43
73645;BME280;61940;42.136;24.534;2022-08-02T09:23:24;99167.05;;;40.70;15.71
73645;BME280;61940;42.136;24.534;2022-08-02T09:25:54;99173.72;;;40.48;15.96
73645;BME280;61940;42.136;24.534;2022-08-02T09:28:20;99174.31;;;39.99;16.46
73645;BME280;61940;42.136;24.534;2022-08-02T09:30:46;99163.44;;;39.31;16.99
73645;BME280;61940;42.136;24.534;2022-08-02T09:33:15;99161.13;;;37.86;18.05
73645;BME280;61940;42.136;24.534;2022-08-02T09:35:39;99172.81;;;36.48;19.74
73645;BME280;61940;42.136;24.534;2022-08-02T09:38:08;99168.53;;;36.44;19.31
73645;BME280;61940;42.136;24.534;2022-08-02T09:40:34;99170.81;;;37.00;18.85
73645;BME280;61940;42.136;24.534;2022-08-02T09:43:00;99171.42;;;37.25;18.60
73645;BME280;61940;42.136;24.534;2022-08-02T09:45:30;99169.46;;;37.56;18.87
73645;BME280;61940;42.136;24.534;2022-08-02T09:47:56;99163.98;;;37.79;18.56
73645;BME280;61940;42.136;24.534;2022-08-02T09:50:22;99163.05;;;36.86;19.02
73645;BME280;61940;42.136;24.534;2022-08-02T09:52:49;99164.75;;;36.86;19.28
73645;BME280;61940;42.136;24.534;2022-08-02T09:55:15;99160.04;;;36.69;19.57
73645;BME280;61940;42.136;24.534;2022-08-02T09:57:42;99165.56;;;36.15;19.87
73645;BME280;61940;42.136;24.534;2022-08-02T10:00:08;99159.72;;;35.67;20.61
73645;BME280;61940;42.136;24.534;2022-08-02T10:02:35;99157.50;;;35.67;20.84
73645;BME280;61940;42.136;24.534;2022-08-02T10:05:02;99155.41;;;35.58;20.41
73645;BME280;61940;42.136;24.534;2022-08-02T10:07:28;99159.45;;;35.25;21.57
73645;BME280;61940;42.136;24.534;2022-08-02T10:09:55;99167.05;;;34.97;21.72
73645;BME280;61940;42.136;24.534;2022-08-02T10:12:21;99163.62;;;34.72;21.09
73645;BME280;61940;42.136;24.534;2022-08-02T10:14:49;99164.69;;;34.22;22.05
73645;BME280;61940;42.136;24.534;2022-08-02T10:17:14;99161.02;;;33.93;22.18
73645;BME280;61940;42.136;24.534;2022-08-02T10:19:40;99161.53;;;33.36;22.51
73645;BME280;61940;42.136;24.534;2022-08-02T10:22:09;99162.73;;;32.87;22.65
73645;BME280;61940;42.136;24.534;2022-08-02T10:24:35;99148.08;;;31.99;23.76
73645;BME280;61940;42.136;24.534;2022-08-02T10:27:01;99155.16;;;31.77;25.38
73645;BME280;61940;42.136;24.534;2022-08-02T10:29:29;99148.41;;;31.72;25.10
73645;BME280;61940;42.136;24.534;2022-08-02T10:31:58;99149.77;;;31.82;25.68
73645;BME280;61940;42.136;24.534;2022-08-02T10:34:23;99152.10;;;32.08;24.65
73645;BME280;61940;42.136;24.534;2022-08-02T10:36:48;99152.12;;;32.29;23.95
73645;BME280;61940;42.136;24.534;2022-08-02T10:39:14;99152.57;;;32.33;25.18
73645;BME280;61940;42.136;24.534;2022-08-02T10:41:41;99154.81;;;32.26;24.09
73645;BME280;61940;42.136;24.534;2022-08-02T10:44:07;99156.47;;;32.25;25.39
73645;BME280;61940;42.136;24.534;2022-08-02T10:46:34;99152.34;;;32.13;24.90
73645;BME280;61940;42.136;24.534;2022-08-02T10:49:01;99152.47;;;31.94;24.85
73645;BME280;61940;42.136;24.534;2022-08-02T10:54:08;99145.40;;;31.71;25.18
73645;BME280;61940;42.136;24.534;2022-08-02T10:56:44;99142.63;;;31.45;25.52
73645;BME280;61940;42.136;24.534;2022-08-02T10:59:21;99139.87;;;31.34;25.68
73645;BME280;61940;42.136;24.534;2022-08-02T11:01:37;99138.50;;;31.56;25.71
73645;BME280;61940;42.136;24.534;2022-08-02T11:04:01;99138.25;;;31.81;25.05
73645;BME280;61940;42.136;24.534;2022-08-02T11:06:27;99133.10;;;31.84;24.43
73645;BME280;61940;42.136;24.534;2022-08-02T11:09:31;99131.94;;;31.75;25.02
73645;BME280;61940;42.136;24.534;2022-08-02T11:12:15;99133.41;;;32.02;25.15
73645;BME280;61940;42.136;24.534;2022-08-02T11:14:23;99131.16;;;32.18;24.50
73645;BME280;61940;42.136;24.534;2022-08-02T11:17:10;99129.34;;;32.38;24.00
73645;BME280;61940;42.136;24.534;2022-08-02T11:20:12;99128.12;;;32.25;23.70
73645;BME280;61940;42.136;24.534;2022-08-02T11:22:02;99120.61;;;31.96;24.09
73645;BME280;61940;42.136;24.534;2022-08-02T11:24:29;99117.30;;;32.07;25.12
73645;BME280;61940;42.136;24.534;2022-08-02T11:26:55;99121.64;;;32.18;24.94
73645;BME280;61940;42.136;24.534;2022-08-02T11:29:21;99117.82;;;32.37;24.45
73645;BME280;61940;42.136;24.534;2022-08-02T11:31:47;99111.72;;;32.45;24.62
73645;BME280;61940;42.136;24.534;2022-08-02T11:34:15;99119.82;;;32.39;24.11
73645;BME280;61940;42.136;24.534;2022-08-02T11:36:45;99117.52;;;32.13;25.35
73645;BME280;61940;42.136;24.534;2022-08-02T11:39:11;99112.47;;;31.98;25.00
73645;BME280;61940;42.136;24.534;2022-08-02T11:41:37;99116.26;;;32.00;25.46
73645;BME280;61940;42.136;24.534;2022-08-02T11:44:03;99113.58;;;32.23;24.58
73645;BME280;61940;42.136;24.534;2022-08-02T11:46:29;99110.41;;;32.42;24.93
73645;BME280;61940;42.136;24.534;2022-08-02T11:48:55;99108.52;;;32.64;24.51
73645;BME280;61940;42.136;24.534;2022-08-02T11:51:22;99106.66;;;32.84;23.87
73645;BME280;61940;42.136;24.534;2022-08-02T11:53:51;99106.55;;;32.88;23.62
73645;BME280;61940;42.136;24.534;2022-08-02T11:56:18;99113.41;;;32.95;23.88
73645;BME280;61940;42.136;24.534;2022-08-02T12:01:15;99110.30;;;32.52;23.84
73645;BME280;61940;42.136;24.534;2022-08-02T12:03:41;99111.14;;;32.50;24.10
73645;BME280;61940;42.136;24.534;2022-08-02T12:06:09;99117.03;;;32.23;23.71
73645;BME280;61940;42.136;24.534;2022-08-02T12:08:36;99117.20;;;32.32;25.11
73645;BME280;61940;42.136;24.534;2022-08-02T12:11:01;99117.13;;;32.40;24.08
73645;BME280;61940;42.136;24.534;2022-08-02T12:13:28;99113.33;;;32.26;24.06
73645;BME280;61940;42.136;24.534;2022-08-02T12:15:53;99115.95;;;32.12;25.04
73645;BME280;61940;42.136;24.534;2022-08-02T12:18:20;99116.47;;;32.15;24.56
73645;BME280;61940;42.136;24.534;2022-08-02T12:20:52;99106.27;;;32.18;25.18
73645;BME280;61940;42.136;24.534;2022-08-02T12:23:18;99097.69;;;32.46;25.14
73645;BME280;61940;42.136;24.534;2022-08-02T12:25:44;99099.83;;;32.69;23.68
73645;BME280;61940;42.136;24.534;2022-08-02T12:28:17;99096.34;;;32.65;24.57
73645;BME280;61940;42.136;24.534;2022-08-02T12:33:15;99102.80;;;32.78;24.12
73645;BME280;61940;42.136;24.534;2022-08-02T12:35:44;99102.48;;;32.56;24.68
73645;BME280;61940;42.136;24.534;2022-08-02T12:38:10;99090.08;;;32.70;24.33
73645;BME280;61940;42.136;24.534;2022-08-02T12:40:36;99097.45;;;32.93;24.48
73645;BME280;61940;42.136;24.534;2022-08-02T12:43:04;99096.95;;;33.22;24.15
73645;BME280;61940;42.136;24.534;2022-08-02T12:45:30;99095.36;;;33.14;23.78
73645;BME280;61940;42.136;24.534;2022-08-02T12:47:56;99095.20;;;32.82;23.79
73645;BME280;61940;42.136;24.534;2022-08-02T12:50:25;99098.96;;;32.52;24.14
73645;BME280;61940;42.136;24.534;2022-08-02T12:52:50;99096.56;;;32.56;24.38
73645;BME280;61940;42.136;24.534;2022-08-02T12:55:20;99098.38;;;32.57;24.50